Time;durP1;ratioP1;P1;durP2;ratioP2;P2;SDS_P1;SDS_P2;PMS_P1;PMS_P2;Temp;Humidity;BMP_temperature;BMP_pressure;BME280_temperature;BME280_humidity;BME280_pressure;Samples;Min_cycle;Max_cycle;Signal;HPM_P1;HPM_P2
2023/09/22 03:31:07;;;;;;;1.40;1.10;;;14.00;99.90;;;;;;5892852;22;20500;-66
2023/09/22 03:33:35;;;;;;;1.40;0.90;;;14.00;99.90;;;;;;5011139;28;20461;-65
2023/09/22 03:36:02;;;;;;;1.30;1.03;;;14.00;99.90;;;;;;5012069;28;20469;-65
2023/09/22 03:38:29;;;;;;;1.33;1.23;;;14.00;99.90;;;;;;5013533;28;20497;-66
2023/09/22 03:41:00;;;;;;;1.57;0.90;;;14.00;99.90;;;;;;5018900;28;20494;-66
2023/09/22 03:43:27;;;;;;;1.67;1.07;;;14.00;99.90;;;;;;5029114;28;20465;-65
2023/09/22 03:45:54;;;;;;;1.43;0.87;;;14.00;99.90;;;;;;5030363;28;20460;-65
2023/09/22 03:48:23;;;;;;;1.20;1.00;;;14.00;99.90;;;;;;5031364;28;20456;-65
2023/09/22 03:50:50;;;;;;;1.07;0.93;;;13.90;99.90;;;;;;5030205;28;20480;-66
2023/09/22 03:53:17;;;;;;;1.17;1.00;;;13.90;99.90;;;;;;5031344;28;20452;-66
2023/09/22 03:55:44;;;;;;;2.20;1.20;;;13.90;99.90;;;;;;5032171;28;20452;-65
2023/09/22 03:58:11;;;;;;;1.20;1.10;;;13.80;99.90;;;;;;5031224;28;20530;-65
2023/09/22 04:00:38;;;;;;;1.97;1.00;;;13.90;99.90;;;;;;5031882;28;20859;-65
2023/09/22 04:03:07;;;;;;;1.83;1.13;;;13.90;99.90;;;;;;5031117;28;20836;-66
2023/09/22 04:05:37;;;;;;;1.03;0.93;;;13.90;99.90;;;;;;5032765;28;20472;-66
2023/09/22 04:08:05;;;;;;;1.47;1.00;;;13.90;99.90;;;;;;5032192;28;20503;-66
2023/09/22 04:10:31;;;;;;;1.77;1.10;;;13.80;99.90;;;;;;5030309;28;20461;-66
2023/09/22 04:12:58;;;;;;;1.70;1.13;;;13.80;99.90;;;;;;5031609;28;20449;-64
2023/09/22 04:15:25;;;;;;;1.07;0.97;;;13.80;99.90;;;;;;5032727;28;20202;-64
2023/09/22 04:17:52;;;;;;;1.10;1.00;;;13.80;99.90;;;;;;5032475;28;20468;-65
2023/09/22 04:20:28;;;;;;;1.10;1.00;;;13.80;99.90;;;;;;5032848;28;20526;-64
2023/09/22 04:22:58;;;;;;;1.63;1.10;;;13.80;99.90;;;;;;5032209;28;20460;-65
2023/09/22 04:25:31;;;;;;;2.80;1.10;;;13.80;99.90;;;;;;5032848;28;20472;-65
2023/09/22 04:28:07;;;;;;;0.90;0.80;;;13.80;99.90;;;;;;5015528;28;20458;-65
2023/09/22 04:30:35;;;;;;;1.60;1.17;;;13.80;99.90;;;;;;5013170;28;20477;-65
2023/09/22 04:33:02;;;;;;;1.00;0.90;;;13.80;99.90;;;;;;5012610;28;20462;-65
2023/09/22 04:35:32;;;;;;;0.90;0.80;;;13.80;99.90;;;;;;5013141;28;20461;-65
2023/09/22 04:38:01;;;;;;;0.97;0.80;;;13.80;99.90;;;;;;5012797;28;20859;-65
2023/09/22 04:40:30;;;;;;;1.57;1.10;;;13.80;99.90;;;;;;5013235;28;20457;-65
2023/09/22 04:42:57;;;;;;;2.37;1.53;;;13.80;99.90;;;;;;5012831;28;20497;-64
2023/09/22 04:45:24;;;;;;;0.90;0.80;;;13.70;99.90;;;;;;5013168;28;20500;-65
2023/09/22 04:47:52;;;;;;;1.27;0.93;;;13.80;99.90;;;;;;5013216;28;20984;-65
2023/09/22 04:50:19;;;;;;;1.30;1.20;;;13.70;99.90;;;;;;5013315;28;20833;-65
2023/09/22 04:52:47;;;;;;;2.23;1.03;;;13.70;99.90;;;;;;5013087;28;20470;-65
2023/09/22 04:55:16;;;;;;;0.97;0.87;;;13.70;99.90;;;;;;5013021;28;20811;-65
2023/09/22 04:57:43;;;;;;;7.90;1.30;;;13.70;99.90;;;;;;5012517;28;20458;-65
2023/09/22 05:00:16;;;;;;;1.70;1.10;;;13.70;99.90;;;;;;5013482;28;20852;-65
2023/09/22 05:02:44;;;;;;;2.90;1.20;;;13.70;99.90;;;;;;5013115;28;20461;-64
2023/09/22 05:05:11;;;;;;;2.03;1.00;;;13.70;99.90;;;;;;5013290;28;20868;-65
2023/09/22 05:07:37;;;;;;;1.37;1.00;;;13.70;99.90;;;;;;5013241;28;20460;-65
2023/09/22 05:10:05;;;;;;;1.97;1.20;;;13.70;99.90;;;;;;5013565;28;20457;-65
2023/09/22 05:12:35;;;;;;;1.73;1.17;;;13.70;99.90;;;;;;5013243;28;20895;-65
2023/09/22 05:15:03;;;;;;;1.70;1.50;;;13.70;99.90;;;;;;5013389;28;20469;-65
2023/09/22 05:17:30;;;;;;;1.57;1.10;;;13.70;99.90;;;;;;5013475;28;20493;-64
2023/09/22 05:19:58;;;;;;;2.50;1.50;;;13.70;99.90;;;;;;5013462;28;20977;-65
2023/09/22 05:22:25;;;;;;;1.03;0.90;;;13.70;99.90;;;;;;5013589;28;20496;-65
2023/09/22 05:24:51;;;;;;;2.03;1.00;;;13.70;99.90;;;;;;5013305;28;20556;-65
2023/09/22 05:27:18;;;;;;;1.67;1.10;;;13.70;99.90;;;;;;5014132;28;20468;-65
2023/09/22 05:29:46;;;;;;;1.67;1.10;;;13.70;99.90;;;;;;5013259;28;20532;-65
2023/09/22 05:32:13;;;;;;;1.87;1.30;;;13.70;99.90;;;;;;5013565;28;20481;-64
2023/09/22 05:34:40;;;;;;;1.67;1.10;;;13.60;99.90;;;;;;5013025;28;20465;-64
2023/09/22 05:37:07;;;;;;;2.33;1.20;;;13.70;99.90;;;;;;5014226;28;20465;-65
2023/09/22 05:39:34;;;;;;;1.10;1.00;;;13.70;99.90;;;;;;5014258;28;20482;-65
2023/09/22 05:42:01;;;;;;;1.13;1.03;;;13.70;99.90;;;;;;5014901;28;20485;-65
2023/09/22 05:44:28;;;;;;;2.13;1.00;;;13.60;99.90;;;;;;5013121;28;20469;-64
2023/09/22 05:46:57;;;;;;;1.27;1.10;;;13.60;99.90;;;;;;5014252;28;20557;-65
2023/09/22 05:49:23;;;;;;;3.30;1.33;;;13.60;99.90;;;;;;5014312;28;20833;-65
2023/09/22 05:51:51;;;;;;;1.80;1.00;;;13.70;99.90;;;;;;5013915;28;20539;-65
2023/09/22 05:54:17;;;;;;;1.20;1.10;;;13.70;99.90;;;;;;5014054;28;20488;-64
2023/09/22 05:56:44;;;;;;;1.20;1.10;;;13.70;99.90;;;;;;5013747;28;20962;-65
2023/09/22 05:59:11;;;;;;;1.10;0.90;;;13.70;99.90;;;;;;5015738;28;20491;-65
2023/09/22 06:01:38;;;;;;;1.30;1.00;;;13.70;99.90;;;;;;5014039;28;20528;-65
2023/09/22 06:04:09;;;;;;;1.30;1.03;;;13.70;99.90;;;;;;5015926;28;20462;-65
2023/09/22 06:06:36;;;;;;;1.20;1.00;;;13.70;99.90;;;;;;5014347;28;20524;-65
2023/09/22 06:09:10;;;;;;;1.10;0.80;;;13.70;99.90;;;;;;5016033;28;20919;-65
2023/09/22 06:11:37;;;;;;;1.30;1.03;;;13.70;99.90;;;;;;5014698;28;20481;-65
2023/09/22 06:14:05;;;;;;;1.13;1.03;;;13.70;99.90;;;;;;5015096;28;20909;-65
2023/09/22 06:16:31;;;;;;;1.30;0.93;;;13.70;99.90;;;;;;5015065;28;20468;-65
2023/09/22 06:18:58;;;;;;;1.10;1.00;;;13.70;99.90;;;;;;5015137;28;20500;-65
2023/09/22 06:21:29;;;;;;;1.20;0.90;;;13.70;99.90;;;;;;5015090;28;21025;-65
2023/09/22 06:23:57;;;;;;;2.40;1.30;;;13.70;99.90;;;;;;5014948;28;20472;-65
2023/09/22 06:26:23;;;;;;;1.40;1.00;;;13.70;99.90;;;;;;5015359;28;20818;-65
2023/09/22 06:28:50;;;;;;;1.63;1.00;;;13.70;99.90;;;;;;5013978;28;20853;-65
2023/09/22 06:31:17;;;;;;;2.10;1.00;;;13.70;99.90;;;;;;5015335;28;20480;-65
2023/09/22 06:33:44;;;;;;;2.73;1.13;;;13.80;99.90;;;;;;5013472;28;20469;-66
2023/09/22 06:36:11;;;;;;;1.13;0.90;;;13.80;99.90;;;;;;5016275;28;20832;-65
2023/09/22 06:38:39;;;;;;;1.60;1.10;;;13.70;99.90;;;;;;5014831;28;20495;-65
2023/09/22 06:41:06;;;;;;;3.90;1.10;;;13.70;99.90;;;;;;5016286;28;20477;-65
2023/09/22 06:43:33;;;;;;;1.87;1.30;;;13.70;99.90;;;;;;5020243;28;20839;-65
2023/09/22 06:46:04;;;;;;;1.07;0.90;;;13.70;99.90;;;;;;5015439;28;20519;-65
2023/09/22 06:48:31;;;;;;;3.00;1.20;;;13.70;99.90;;;;;;5014442;28;20549;-65
2023/09/22 06:50:59;;;;;;;1.60;1.13;;;13.70;99.90;;;;;;5014790;28;20492;-65
2023/09/22 06:53:28;;;;;;;1.20;0.90;;;13.80;99.90;;;;;;5014829;28;20475;-66
2023/09/22 06:56:06;;;;;;;1.77;0.90;;;13.80;99.90;;;;;;5014816;28;20552;-65
2023/09/22 06:58:33;;;;;;;1.97;1.13;;;13.70;99.90;;;;;;5014888;28;20976;-65
2023/09/22 07:01:08;;;;;;;2.40;0.93;;;13.80;99.90;;;;;;5015594;28;20489;-65
2023/09/22 07:03:35;;;;;;;1.53;0.83;;;13.80;99.90;;;;;;5015412;28;20926;-65
2023/09/22 07:06:02;;;;;;;1.07;0.97;;;13.80;99.90;;;;;;5015525;28;20458;-65
2023/09/22 07:08:29;;;;;;;1.37;0.90;;;13.80;99.90;;;;;;5015348;28;20471;-64
2023/09/22 07:11:02;;;;;;;1.20;1.00;;;13.90;99.90;;;;;;5014847;28;20576;-65
2023/09/22 07:13:29;;;;;;;1.20;1.07;;;13.90;99.90;;;;;;5014889;28;20500;-65
2023/09/22 07:15:57;;;;;;;1.00;0.90;;;13.90;99.90;;;;;;5014933;28;20473;-65
2023/09/22 07:18:24;;;;;;;1.13;1.00;;;13.90;99.90;;;;;;5016522;28;20483;-65
2023/09/22 07:20:51;;;;;;;1.57;0.97;;;14.00;99.90;;;;;;5016555;28;20535;-65
2023/09/22 07:23:18;;;;;;;1.20;0.97;;;14.00;99.90;;;;;;5020339;28;20500;-65
2023/09/22 07:25:45;;;;;;;1.27;1.17;;;14.00;99.90;;;;;;5018701;28;20462;-65
2023/09/22 07:28:13;;;;;;;1.43;0.90;;;14.00;99.90;;;;;;5021006;28;20461;-65
2023/09/22 07:30:40;;;;;;;1.10;0.90;;;14.00;99.90;;;;;;5018550;28;20487;-65
2023/09/22 07:33:09;;;;;;;1.20;1.00;;;14.00;99.90;;;;;;5020018;28;20525;-65
2023/09/22 07:35:35;;;;;;;1.07;0.90;;;14.10;99.90;;;;;;5018923;28;20461;-65
2023/09/22 07:38:02;;;;;;;1.03;0.93;;;14.10;99.90;;;;;;5020041;28;20472;-65
2023/09/22 07:40:29;;;;;;;1.73;1.23;;;14.10;99.90;;;;;;5019852;28;20516;-65
2023/09/22 07:42:56;;;;;;;1.27;1.00;;;14.10;99.90;;;;;;5019206;28;20557;-65
2023/09/22 07:45:24;;;;;;;2.00;1.03;;;14.00;99.90;;;;;;5020487;28;20510;-65
2023/09/22 07:47:51;;;;;;;1.60;1.00;;;14.00;99.90;;;;;;5018826;28;20548;-65
2023/09/22 07:50:20;;;;;;;1.17;1.07;;;14.00;99.90;;;;;;5027162;28;20544;-65
2023/09/22 07:52:46;;;;;;;1.60;1.00;;;14.00;99.90;;;;;;5018901;28;20461;-66
2023/09/22 07:55:16;;;;;;;2.23;1.20;;;14.10;99.90;;;;;;5020937;28;20469;-65
2023/09/22 07:57:47;;;;;;;2.10;1.90;;;14.10;99.90;;;;;;5019087;28;20462;-65
2023/09/22 08:00:14;;;;;;;2.33;1.00;;;14.10;99.90;;;;;;5021404;28;20912;-66
2023/09/22 08:02:43;;;;;;;1.83;1.00;;;14.10;99.90;;;;;;5024054;28;20468;-65
2023/09/22 08:05:15;;;;;;;1.20;1.10;;;14.10;99.90;;;;;;5020472;28;20462;-65
2023/09/22 08:07:43;;;;;;;1.10;0.90;;;14.20;99.90;;;;;;5024047;28;20462;-65
2023/09/22 08:10:10;;;;;;;1.30;1.20;;;14.20;99.90;;;;;;5021619;28;20458;-65
2023/09/22 08:12:38;;;;;;;1.40;1.07;;;14.30;99.90;;;;;;5019175;28;20488;-65
2023/09/22 08:15:06;;;;;;;1.50;1.10;;;14.30;99.90;;;;;;5019839;28;20491;-66
2023/09/22 08:17:33;;;;;;;1.10;0.90;;;14.30;99.90;;;;;;5020191;28;20460;-65
2023/09/22 08:20:01;;;;;;;2.20;1.37;;;14.40;99.90;;;;;;5019734;28;20907;-65
2023/09/22 08:22:28;;;;;;;1.07;0.97;;;14.50;99.90;;;;;;5020422;28;20480;-65
2023/09/22 08:24:55;;;;;;;1.50;1.20;;;14.50;99.90;;;;;;5018680;28;20468;-65
2023/09/22 08:27:22;;;;;;;1.87;1.67;;;14.70;99.90;;;;;;5027333;28;20469;-65
2023/09/22 08:29:50;;;;;;;1.43;1.20;;;14.70;99.90;;;;;;5018901;28;20549;-65
2023/09/22 08:32:16;;;;;;;0.93;0.83;;;14.80;99.90;;;;;;5021725;28;20484;-65
2023/09/22 08:34:43;;;;;;;1.30;1.03;;;14.90;99.90;;;;;;5018676;28;20845;-65
2023/09/22 08:39:44;;;;;;;1.00;0.90;;;15.10;99.90;;;;;;5170934;22;20501;-65
2023/09/22 08:42:11;;;;;;;1.00;0.90;;;15.10;99.90;;;;;;5002994;28;20479;-66
2023/09/22 08:44:38;;;;;;;1.10;1.00;;;15.10;99.90;;;;;;5000028;28;20483;-65
2023/09/22 08:47:05;;;;;;;1.20;1.10;;;15.10;99.90;;;;;;5001238;28;20463;-65
2023/09/22 08:49:32;;;;;;;1.20;1.00;;;15.20;99.90;;;;;;5001194;28;20462;-66
2023/09/22 08:52:01;;;;;;;1.07;0.97;;;15.20;99.90;;;;;;5000442;28;20482;-66
2023/09/22 08:54:29;;;;;;;1.00;0.90;;;15.20;99.90;;;;;;5001404;28;20500;-65
2023/09/22 08:56:57;;;;;;;1.20;1.10;;;15.20;99.90;;;;;;5000010;28;20466;-65
2023/09/22 08:59:24;;;;;;;1.40;1.20;;;15.20;99.90;;;;;;5002727;28;20919;-66
2023/09/22 09:01:51;;;;;;;1.17;1.00;;;15.30;99.90;;;;;;4999889;28;20486;-66
2023/09/22 09:04:32;;;;;;;1.20;0.90;;;15.30;99.90;;;;;;5002768;28;20457;-66
2023/09/22 09:06:58;;;;;;;2.60;1.13;;;15.30;99.90;;;;;;4990277;28;21067;-66
2023/09/22 09:09:25;;;;;;;1.20;1.00;;;15.30;99.90;;;;;;4992820;28;20470;-66
2023/09/22 09:12:00;;;;;;;1.40;1.30;;;15.20;99.90;;;;;;4993157;28;20482;-66
2023/09/22 09:14:28;;;;;;;1.57;1.27;;;15.20;99.90;;;;;;4990151;28;20461;-66
2023/09/22 09:16:56;;;;;;;1.00;0.90;;;15.20;99.90;;;;;;4992971;28;20460;-65
2023/09/22 09:19:24;;;;;;;1.00;0.90;;;15.20;99.90;;;;;;4992751;28;20820;-66
2023/09/22 09:22:05;;;;;;;1.00;0.90;;;15.30;99.90;;;;;;4992885;28;20584;-66
2023/09/22 09:24:32;;;;;;;1.10;1.00;;;15.20;99.90;;;;;;4990262;28;20458;-65
2023/09/22 09:27:00;;;;;;;1.57;1.13;;;15.30;99.90;;;;;;4992626;28;20948;-66
2023/09/22 09:29:28;;;;;;;1.60;1.30;;;15.30;99.90;;;;;;4992377;28;20828;-65
2023/09/22 09:31:55;;;;;;;1.80;1.00;;;15.30;99.90;;;;;;4992521;28;20486;-66
2023/09/22 09:34:39;;;;;;;1.50;1.10;;;15.30;99.90;;;;;;4992369;28;20936;-65
2023/09/22 09:37:13;;;;;;;1.10;0.80;;;15.30;99.90;;;;;;4991168;28;20550;-66
2023/09/22 09:39:47;;;;;;;1.47;1.30;;;15.30;99.90;;;;;;4992061;28;21002;-65
2023/09/22 09:42:18;;;;;;;1.60;0.90;;;15.30;99.90;;;;;;4992212;28;20540;-64
2023/09/22 09:44:49;;;;;;;1.90;1.10;;;15.30;99.90;;;;;;4991715;28;20557;-65
2023/09/22 09:47:23;;;;;;;1.77;1.13;;;15.30;99.90;;;;;;4992680;28;20511;-65
2023/09/22 09:49:52;;;;;;;1.07;0.97;;;15.50;99.90;;;;;;4988698;28;20466;-65
2023/09/22 09:52:23;;;;;;;1.20;0.90;;;16.00;99.90;;;;;;4988322;28;20487;-66
2023/09/22 09:54:58;;;;;;;1.90;0.90;;;16.20;99.90;;;;;;4988293;28;20466;-65
2023/09/22 09:57:28;;;;;;;1.00;0.90;;;16.30;99.90;;;;;;4988724;28;20455;-65
2023/09/22 09:59:57;;;;;;;1.67;1.20;;;16.40;99.90;;;;;;4992376;28;20879;-66
2023/09/22 10:02:25;;;;;;;1.43;1.00;;;16.30;99.90;;;;;;4992034;28;20487;-66
2023/09/22 10:04:53;;;;;;;1.23;0.90;;;16.20;99.90;;;;;;4988514;28;20469;-66
2023/09/22 10:07:21;;;;;;;1.40;1.10;;;16.20;99.90;;;;;;4988003;28;20462;-66
2023/09/22 10:09:48;;;;;;;2.90;1.53;;;16.10;99.90;;;;;;4991941;28;20446;-65
2023/09/22 10:12:15;;;;;;;1.00;0.80;;;16.10;99.90;;;;;;4992288;28;20487;-66
2023/09/22 10:14:51;;;;;;;1.10;0.97;;;16.00;99.90;;;;;;4991662;28;20614;-66
2023/09/22 10:17:22;;;;;;;0.90;0.80;;;16.10;99.90;;;;;;4991840;28;20521;-65
2023/09/22 10:19:49;;;;;;;1.40;0.83;;;16.30;99.90;;;;;;4991877;28;20565;-66
2023/09/22 10:22:16;;;;;;;1.77;1.13;;;16.30;99.90;;;;;;4991665;28;20479;-66
2023/09/22 10:24:43;;;;;;;1.43;0.90;;;16.40;99.90;;;;;;4991517;28;20763;-66
2023/09/22 10:27:14;;;;;;;1.57;1.00;;;16.50;99.90;;;;;;4991848;28;20467;-66
2023/09/22 10:29:51;;;;;;;1.10;0.90;;;16.60;99.90;;;;;;4991598;28;20558;-66
2023/09/22 10:32:23;;;;;;;1.00;0.83;;;16.80;99.90;;;;;;4991567;28;20500;-66
2023/09/22 10:34:51;;;;;;;1.97;1.10;;;17.10;99.90;;;;;;4991836;28;20474;-65
2023/09/22 10:37:19;;;;;;;1.20;0.97;;;17.40;99.90;;;;;;4991563;28;20958;-66
2023/09/22 10:39:53;;;;;;;1.10;0.83;;;17.70;99.90;;;;;;4991440;28;20478;-65
2023/09/22 10:42:21;;;;;;;1.07;0.87;;;17.90;99.90;;;;;;4987346;28;20849;-66
2023/09/22 10:45:01;;;;;;;1.20;1.00;;;18.00;99.90;;;;;;4991429;28;20462;-65
2023/09/22 10:47:39;;;;;;;1.47;0.80;;;17.90;99.90;;;;;;4988122;28;20953;-65
2023/09/22 10:50:19;;;;;;;1.20;0.90;;;17.80;99.90;;;;;;4989731;28;20499;-66
2023/09/22 10:52:54;;;;;;;1.20;0.90;;;17.70;99.90;;;;;;4991385;28;20470;-66
2023/09/22 10:55:30;;;;;;;1.43;1.00;;;17.50;99.90;;;;;;4988558;28;20467;-66
2023/09/22 10:57:58;;;;;;;1.73;0.90;;;17.30;99.90;;;;;;4992874;28;20522;-66
2023/09/22 11:00:27;;;;;;;1.77;0.90;;;17.20;99.90;;;;;;4995244;28;20490;-66
2023/09/22 11:02:54;;;;;;;1.00;0.70;;;17.40;99.90;;;;;;4995884;28;20471;-64
2023/09/22 11:05:23;;;;;;;1.00;0.80;;;17.60;99.90;;;;;;4990981;28;20831;-64
2023/09/22 11:07:51;;;;;;;1.23;1.00;;;17.90;99.90;;;;;;4995945;28;20492;-64
2023/09/22 11:10:19;;;;;;;1.30;0.80;;;17.90;99.90;;;;;;4994963;28;20464;-65
2023/09/22 11:12:49;;;;;;;1.00;0.90;;;17.90;99.90;;;;;;4995148;28;20893;-65
2023/09/22 11:15:15;;;;;;;0.87;0.73;;;17.90;99.90;;;;;;4995377;28;20997;-66
2023/09/22 11:17:46;;;;;;;1.07;0.83;;;17.80;99.90;;;;;;4994979;28;20501;-67
2023/09/22 11:20:26;;;;;;;0.90;0.70;;;17.60;99.90;;;;;;4995031;28;20571;-67
2023/09/22 11:22:54;;;;;;;1.77;1.20;;;17.40;99.90;;;;;;4995135;28;20809;-65
2023/09/22 11:25:21;;;;;;;1.40;0.90;;;17.30;99.90;;;;;;4989938;28;20488;-64
2023/09/22 11:27:49;;;;;;;1.23;0.93;;;17.40;99.90;;;;;;4994760;28;20498;-65
2023/09/22 11:30:19;;;;;;;1.00;0.80;;;17.60;99.90;;;;;;4995059;28;20901;-64
2023/09/22 11:32:48;;;;;;;1.23;1.10;;;17.50;99.90;;;;;;4994828;28;20465;-67
2023/09/22 11:35:33;;;;;;;1.77;0.83;;;17.50;99.90;;;;;;4994693;28;20468;-64
2023/09/22 11:38:01;;;;;;;1.63;0.90;;;17.40;99.90;;;;;;4992332;28;20475;-65
2023/09/22 11:40:39;;;;;;;1.10;0.90;;;17.40;99.90;;;;;;4994697;28;20488;-64
2023/09/22 11:43:06;;;;;;;0.93;0.80;;;17.30;99.90;;;;;;4992580;28;20498;-65
2023/09/22 11:45:32;;;;;;;1.30;1.00;;;17.30;99.90;;;;;;4994459;28;20561;-65
2023/09/22 11:48:07;;;;;;;3.10;1.50;;;17.50;99.90;;;;;;4991842;28;20851;-65
2023/09/22 11:50:34;;;;;;;1.00;0.90;;;17.60;99.90;;;;;;4994627;28;20565;-65
2023/09/22 11:53:18;;;;;;;2.30;1.03;;;18.00;99.90;;;;;;4991727;28;20973;-64
2023/09/22 11:55:46;;;;;;;1.20;0.90;;;18.40;99.90;;;;;;4994476;28;20469;-65
2023/09/22 11:58:14;;;;;;;1.20;0.90;;;18.50;99.90;;;;;;4994254;28;20469;-65
2023/09/22 12:00:40;;;;;;;1.10;0.90;;;18.60;99.90;;;;;;4994030;28;21033;-65
2023/09/22 12:03:09;;;;;;;1.77;1.13;;;18.80;99.90;;;;;;4994023;28;20465;-65
2023/09/22 12:05:36;;;;;;;2.50;1.07;;;19.00;99.90;;;;;;4993827;28;20524;-65
2023/09/22 12:08:04;;;;;;;1.00;0.80;;;19.30;99.90;;;;;;4992032;28;20462;-65
2023/09/22 12:10:31;;;;;;;2.50;1.00;;;19.40;99.90;;;;;;4994249;28;20813;-64
2023/09/22 12:12:58;;;;;;;1.33;0.93;;;19.40;99.90;;;;;;4994750;28;20477;-64
2023/09/22 12:15:25;;;;;;;1.00;0.80;;;19.60;99.90;;;;;;4994950;28;20849;-64
2023/09/22 12:17:51;;;;;;;1.10;0.90;;;19.80;99.90;;;;;;4994163;28;20837;-65
2023/09/22 12:20:20;;;;;;;1.53;1.00;;;19.80;99.90;;;;;;4993922;28;20472;-65
2023/09/22 12:22:46;;;;;;;1.40;0.90;;;19.50;99.90;;;;;;4993890;28;20465;-65
2023/09/22 12:25:14;;;;;;;2.10;1.07;;;19.20;99.90;;;;;;4993611;28;20466;-65
2023/09/22 12:27:41;;;;;;;1.67;1.23;;;19.00;99.90;;;;;;4993519;28;20473;-65
2023/09/22 12:30:09;;;;;;;2.60;1.37;;;18.80;99.90;;;;;;4993808;28;20922;-64
2023/09/22 12:32:36;;;;;;;1.23;1.13;;;18.70;99.90;;;;;;4993589;28;20858;-64
2023/09/22 12:35:05;;;;;;;1.00;0.90;;;18.70;99.90;;;;;;4993255;28;20964;-65
2023/09/22 12:37:33;;;;;;;1.00;0.90;;;18.50;99.90;;;;;;4993923;28;20555;-65
2023/09/22 12:40:01;;;;;;;2.03;0.90;;;18.80;99.90;;;;;;4993628;28;20465;-64
2023/09/22 12:42:28;;;;;;;0.80;0.70;;;19.10;99.90;;;;;;4993455;28;20490;-65
2023/09/22 12:44:54;;;;;;;1.33;1.00;;;19.40;99.90;;;;;;4993334;28;20469;-64
2023/09/22 12:47:21;;;;;;;1.00;0.80;;;19.70;99.90;;;;;;4993359;28;20967;-65
2023/09/22 12:49:48;;;;;;;1.53;0.90;;;20.00;99.90;;;;;;4993338;28;20473;-65
2023/09/22 12:52:15;;;;;;;1.37;0.97;;;20.10;99.90;;;;;;4993299;28;20562;-65
2023/09/22 12:54:43;;;;;;;0.90;0.80;;;20.20;99.90;;;;;;4993087;28;21097;-64
2023/09/22 12:57:10;;;;;;;1.93;1.00;;;20.30;99.90;;;;;;4993247;28;20840;-65
2023/09/22 12:59:37;;;;;;;1.30;1.00;;;20.40;99.90;;;;;;4993159;28;20470;-65
2023/09/22 13:02:04;;;;;;;1.20;0.90;;;20.20;99.90;;;;;;4992860;28;20832;-65
2023/09/22 13:04:33;;;;;;;1.47;1.30;;;19.90;99.90;;;;;;4992740;28;20463;-65
2023/09/22 13:06:59;;;;;;;3.30;1.03;;;19.80;99.90;;;;;;4993086;28;20536;-65
2023/09/22 13:09:27;;;;;;;1.30;0.90;;;19.70;99.90;;;;;;4992962;28;20966;-64
2023/09/22 13:11:55;;;;;;;1.67;1.00;;;19.60;99.90;;;;;;4992902;28;20483;-65
2023/09/22 13:14:21;;;;;;;2.60;1.13;;;19.30;99.90;;;;;;4986523;28;20459;-65
2023/09/22 13:16:49;;;;;;;2.23;1.13;;;19.10;99.90;;;;;;4992805;28;20455;-64
2023/09/22 13:19:16;;;;;;;1.50;0.90;;;19.00;99.90;;;;;;4992249;28;21140;-65
2023/09/22 13:21:43;;;;;;;1.50;1.00;;;18.80;99.90;;;;;;4992418;28;20500;-63
2023/09/22 13:24:09;;;;;;;1.10;0.97;;;18.80;99.90;;;;;;4992753;28;20458;-65
2023/09/22 13:26:36;;;;;;;2.50;1.10;;;18.90;99.90;;;;;;4992722;28;20468;-65
2023/09/22 13:29:05;;;;;;;5.80;1.23;;;19.30;99.90;;;;;;4992560;28;20469;-65
2023/09/22 13:31:32;;;;;;;1.23;0.90;;;19.60;99.90;;;;;;4992449;28;20842;-65
2023/09/22 13:33:58;;;;;;;2.90;1.07;;;19.80;99.90;;;;;;4992305;28;20903;-65
2023/09/22 13:36:26;;;;;;;2.57;1.57;;;19.80;99.90;;;;;;4992588;28;20906;-64
2023/09/22 13:38:53;;;;;;;1.33;1.17;;;19.70;99.90;;;;;;4992585;28;20945;-65
2023/09/22 13:41:20;;;;;;;1.97;1.10;;;19.60;99.90;;;;;;4985523;28;20560;-64
2023/09/22 13:43:47;;;;;;;2.83;0.90;;;19.50;99.90;;;;;;4992066;28;20469;-64
2023/09/22 13:46:16;;;;;;;1.57;1.03;;;19.60;99.90;;;;;;4992346;28;20465;-65
2023/09/22 13:48:44;;;;;;;1.33;1.20;;;19.80;99.90;;;;;;4992295;28;20868;-65
2023/09/22 13:51:11;;;;;;;1.27;0.97;;;20.00;99.90;;;;;;4991133;28;20488;-65
2023/09/22 13:53:38;;;;;;;1.67;0.93;;;20.10;99.90;;;;;;4991891;28;20478;-64
2023/09/22 13:56:05;;;;;;;1.50;1.10;;;19.90;99.90;;;;;;4992226;28;20462;-65
2023/09/22 13:58:34;;;;;;;1.27;0.90;;;20.00;99.90;;;;;;4992211;28;20842;-65
2023/09/22 14:01:10;;;;;;;1.83;1.10;;;20.00;99.90;;;;;;4991955;28;20523;-64
2023/09/22 14:03:38;;;;;;;4.30;1.37;;;20.20;99.90;;;;;;4991781;28;20461;-65
2023/09/22 14:06:05;;;;;;;1.37;1.27;;;20.30;99.90;;;;;;4992530;28;20464;-65
2023/09/22 14:08:33;;;;;;;1.17;1.07;;;20.40;99.90;;;;;;4992097;28;20469;-66
2023/09/22 14:11:00;;;;;;;2.20;1.33;;;20.40;99.90;;;;;;4991780;28;20840;-65
2023/09/22 14:13:28;;;;;;;1.77;1.40;;;20.50;99.90;;;;;;4991741;28;20832;-65
2023/09/22 14:15:55;;;;;;;2.70;1.73;;;20.60;99.90;;;;;;4991741;28;20536;-64
2023/09/22 14:18:22;;;;;;;1.20;1.00;;;20.80;99.90;;;;;;4991932;28;20529;-65
2023/09/22 14:20:51;;;;;;;2.10;1.20;;;20.80;99.90;;;;;;4991678;28;20484;-65
2023/09/22 14:23:18;;;;;;;2.30;1.20;;;20.90;99.90;;;;;;4991453;28;20469;-65
2023/09/22 14:25:45;;;;;;;1.30;0.80;;;20.90;99.90;;;;;;4991802;28;20463;-65
2023/09/22 14:28:12;;;;;;;1.30;1.10;;;20.90;99.90;;;;;;4991687;28;20485;-65
2023/09/22 14:30:39;;;;;;;3.90;1.33;;;20.90;99.90;;;;;;4983293;28;20480;-65
2023/09/22 14:33:06;;;;;;;1.17;0.80;;;20.80;99.90;;;;;;4991424;28;20468;-65
2023/09/22 14:35:33;;;;;;;1.17;0.90;;;20.90;99.90;;;;;;4990747;28;20969;-64
2023/09/22 14:38:01;;;;;;;2.33;0.83;;;20.90;99.90;;;;;;4988289;28;20476;-64
2023/09/22 14:40:28;;;;;;;1.47;1.10;;;20.90;99.90;;;;;;4988788;28;20508;-65
2023/09/22 14:42:56;;;;;;;1.80;1.30;;;20.90;99.90;;;;;;4988538;28;20488;-64
2023/09/22 14:45:23;;;;;;;1.77;1.33;;;20.80;99.90;;;;;;4989337;28;20471;-64
2023/09/22 14:47:52;;;;;;;1.57;1.03;;;20.80;99.90;;;;;;4988984;28;20463;-64
2023/09/22 14:50:19;;;;;;;2.07;1.23;;;20.90;99.90;;;;;;4988578;28;20467;-64
2023/09/22 14:52:46;;;;;;;1.43;1.10;;;20.80;99.90;;;;;;4989018;28;20471;-65
2023/09/22 14:55:14;;;;;;;1.40;0.90;;;20.60;99.90;;;;;;4989302;28;20974;-64
2023/09/22 14:57:41;;;;;;;2.00;1.00;;;20.30;99.90;;;;;;4989290;28;20470;-64
2023/09/22 15:00:12;;;;;;;1.97;1.07;;;20.10;99.90;;;;;;4988699;28;20471;-64
2023/09/22 15:02:40;;;;;;;2.27;1.50;;;19.90;99.90;;;;;;4988939;28;21014;-65
2023/09/22 15:05:07;;;;;;;2.57;1.23;;;19.90;99.90;;;;;;4988309;28;20922;-64
2023/09/22 15:07:34;;;;;;;1.40;1.00;;;20.00;99.90;;;;;;4988632;28;20485;-64
2023/09/22 15:10:02;;;;;;;1.80;1.50;;;20.10;99.90;;;;;;4988512;28;20481;-64
2023/09/22 15:12:30;;;;;;;1.03;0.90;;;20.10;99.90;;;;;;4988523;28;20483;-64
2023/09/22 15:14:59;;;;;;;1.27;0.90;;;20.00;99.90;;;;;;4988106;28;20563;-64
2023/09/22 15:17:26;;;;;;;1.10;1.00;;;19.80;99.90;;;;;;4988425;28;20982;-64
2023/09/22 15:19:53;;;;;;;1.23;1.13;;;19.70;99.90;;;;;;4988474;28;20458;-64
2023/09/22 15:22:20;;;;;;;1.40;1.30;;;19.50;99.90;;;;;;4988385;28;21018;-65
2023/09/22 15:24:47;;;;;;;2.30;1.30;;;19.40;99.90;;;;;;4988247;28;20478;-64
2023/09/22 15:27:18;;;;;;;1.40;1.03;;;19.40;99.90;;;;;;4988113;28;20485;-64
2023/09/22 15:29:46;;;;;;;2.10;0.97;;;19.40;99.90;;;;;;4988815;28;20837;-65
2023/09/22 15:32:14;;;;;;;1.20;0.90;;;19.40;99.90;;;;;;4988240;28;20497;-63
2023/09/22 15:34:42;;;;;;;1.53;0.90;;;19.30;99.90;;;;;;4988544;28;20474;-64
2023/09/22 15:37:09;;;;;;;1.77;0.80;;;19.10;99.90;;;;;;4988254;28;20558;-65
2023/09/22 15:39:36;;;;;;;2.20;1.43;;;19.00;99.90;;;;;;4988715;28;20548;-65
2023/09/22 15:42:04;;;;;;;1.73;0.97;;;19.10;99.90;;;;;;4990193;28;20493;-65
2023/09/22 15:44:31;;;;;;;1.07;0.97;;;19.20;99.90;;;;;;4991370;28;20966;-64
2023/09/22 15:47:00;;;;;;;1.67;1.23;;;19.10;99.90;;;;;;4991323;28;20993;-64
2023/09/22 15:49:27;;;;;;;1.50;1.10;;;18.90;99.90;;;;;;4991887;28;20503;-64
2023/09/22 15:51:54;;;;;;;1.37;0.83;;;18.60;99.90;;;;;;4991650;28;20478;-64
2023/09/22 15:54:21;;;;;;;1.07;0.90;;;18.40;99.90;;;;;;4990997;28;20461;-65
2023/09/22 15:56:48;;;;;;;1.40;1.03;;;18.20;99.90;;;;;;4991471;28;20520;-64
2023/09/22 15:59:14;;;;;;;1.20;0.90;;;18.20;99.90;;;;;;4991236;28;21531;-64
2023/09/22 16:01:42;;;;;;;1.60;1.07;;;18.30;99.90;;;;;;4991498;28;20494;-65
2023/09/22 16:04:10;;;;;;;1.37;1.00;;;18.10;99.90;;;;;;4990743;28;20703;-64
2023/09/22 16:06:37;;;;;;;1.00;0.90;;;17.90;99.90;;;;;;4991196;28;20476;-64
2023/09/22 16:09:04;;;;;;;1.43;1.10;;;17.70;99.90;;;;;;4991022;28;20473;-64
2023/09/22 16:11:31;;;;;;;1.17;1.07;;;17.60;99.90;;;;;;4991316;28;20520;-64
2023/09/22 16:13:58;;;;;;;1.17;0.90;;;17.60;99.90;;;;;;4990726;28;21337;-65
2023/09/22 16:16:24;;;;;;;1.40;0.97;;;17.50;99.90;;;;;;4991260;28;20842;-64
2023/09/22 16:18:51;;;;;;;1.20;0.90;;;17.50;99.90;;;;;;4991083;28;20543;-64
2023/09/22 16:21:19;;;;;;;0.97;0.80;;;17.50;99.90;;;;;;4990959;28;20916;-65
2023/09/22 16:23:46;;;;;;;1.00;0.80;;;17.40;99.90;;;;;;4992988;28;20465;-64
2023/09/22 16:26:13;;;;;;;1.57;0.93;;;17.40;99.90;;;;;;5075921;22;20860;-65